createdAt,value
2019-04-28T00:00:02.343Z,0.00
2019-04-28T00:01:02.361Z,0.00
2019-04-28T00:02:02.405Z,0.00
2019-04-28T00:03:02.311Z,0.00
2019-04-28T00:04:03.490Z,0.00
2019-04-28T00:05:02.283Z,0.00
2019-04-28T00:06:02.273Z,0.00
2019-04-28T00:07:02.320Z,0.00
2019-04-28T00:08:02.263Z,0.00
2019-04-28T00:09:02.243Z,0.00
2019-04-28T00:10:02.234Z,0.00
2019-04-28T00:11:02.244Z,0.00
2019-04-28T00:12:02.213Z,0.00
2019-04-28T00:13:02.272Z,0.00
2019-04-28T00:14:02.196Z,0.00
2019-04-28T00:15:02.527Z,0.00
2019-04-28T00:16:02.161Z,0.00
2019-04-28T00:17:02.160Z,0.00
2019-04-28T00:18:04.121Z,0.00
2019-04-28T00:19:02.145Z,0.00
2019-04-28T00:20:02.111Z,0.00
2019-04-28T00:21:02.110Z,0.00
2019-04-28T00:22:02.093Z,0.00
2019-04-28T00:23:04.185Z,0.00
2019-04-28T00:24:02.163Z,0.00
2019-04-28T00:25:02.064Z,0.00
2019-04-28T00:26:02.067Z,0.00
2019-04-28T00:27:02.041Z,0.00
2019-04-28T00:28:02.043Z,0.00
2019-04-28T00:29:02.021Z,0.00
2019-04-28T00:30:02.249Z,0.00
2019-04-28T00:31:02.473Z,0.00
2019-04-28T00:32:01.993Z,0.00
2019-04-28T00:33:01.980Z,0.00
2019-04-28T00:34:02.074Z,0.00
2019-04-28T00:35:02.401Z,0.00
2019-04-28T00:36:01.943Z,0.00
2019-04-28T00:37:01.943Z,0.00
2019-04-28T00:38:01.923Z,0.00
2019-04-28T00:39:01.919Z,0.00
2019-04-28T00:40:02.001Z,0.00
2019-04-28T00:41:02.383Z,0.00
2019-04-28T00:42:03.315Z,0.00
2019-04-28T00:43:01.861Z,0.00
2019-04-28T00:44:02.021Z,0.00
2019-04-28T00:45:02.058Z,0.00
2019-04-28T00:46:01.913Z,0.00
2019-04-28T00:47:01.826Z,0.00
2019-04-28T00:48:01.812Z,0.00
2019-04-28T00:49:02.198Z,0.00
2019-04-28T00:50:02.254Z,0.00
2019-04-28T00:51:01.936Z,0.00
2019-04-28T00:52:03.052Z,0.00
2019-04-28T00:53:01.858Z,0.00
2019-04-28T00:54:01.746Z,0.00
2019-04-28T00:55:01.761Z,0.00
2019-04-28T00:56:02.155Z,0.00
2019-04-28T00:57:01.804Z,0.00
2019-04-28T00:58:01.709Z,0.00
2019-04-28T00:59:01.804Z,0.00
2019-04-28T01:00:02.528Z,0.00
2019-04-28T01:01:01.682Z,0.00
2019-04-28T01:02:01.743Z,0.00
2019-04-28T01:03:02.164Z,0.00
2019-04-28T01:04:02.163Z,0.00
2019-04-28T01:05:01.949Z,0.00
2019-04-28T01:06:01.947Z,0.00
2019-04-28T01:07:01.715Z,0.00
2019-04-28T01:08:01.632Z,0.00
2019-04-28T01:09:03.808Z,0.00
2019-04-28T01:10:01.616Z,0.00
2019-04-28T01:11:01.863Z,0.00
2019-04-28T01:12:01.894Z,0.00
2019-04-28T01:13:02.137Z,0.00
2019-04-28T01:14:01.797Z,0.00
2019-04-28T01:15:04.495Z,0.00
2019-04-28T01:16:01.514Z,0.00
2019-04-28T01:17:01.493Z,0.00
2019-04-28T01:18:01.482Z,0.00
2019-04-28T01:19:01.481Z,0.00
2019-04-28T01:20:01.542Z,0.00
2019-04-28T01:21:01.456Z,0.00
2019-04-28T01:22:01.454Z,0.00
2019-04-28T01:23:01.444Z,0.00
2019-04-28T01:24:01.492Z,0.00
2019-04-28T01:25:01.495Z,0.00
2019-04-28T01:26:01.401Z,0.00
2019-04-28T01:27:01.397Z,0.00
2019-04-28T01:28:01.388Z,0.00
2019-04-28T01:29:01.444Z,0.00
2019-04-28T01:30:07.705Z,0.00
2019-04-28T01:31:02.342Z,0.00
2019-04-28T01:32:01.361Z,0.00
2019-04-28T01:33:01.334Z,0.00
2019-04-28T01:34:01.641Z,0.00
2019-04-28T01:35:01.304Z,0.00
2019-04-28T01:36:01.282Z,0.00
2019-04-28T01:37:01.272Z,0.00
2019-04-28T01:38:01.262Z,0.00
2019-04-28T01:39:01.261Z,0.00
2019-04-28T01:40:01.251Z,0.00
2019-04-28T01:41:01.571Z,0.00
2019-04-28T01:42:01.222Z,0.00
2019-04-28T01:43:01.224Z,0.00
2019-04-28T01:44:01.286Z,0.00
2019-04-28T01:45:01.192Z,0.00
2019-04-28T01:46:01.292Z,0.00
2019-04-28T01:47:01.266Z,0.00
2019-04-28T01:48:02.283Z,0.00
2019-04-28T01:49:01.155Z,0.00
2019-04-28T01:50:02.011Z,0.00
2019-04-28T01:51:01.131Z,0.00
2019-04-28T01:52:01.381Z,0.00
2019-04-28T01:53:01.101Z,0.00
2019-04-28T01:54:01.185Z,0.00
2019-04-28T01:55:01.087Z,0.00
2019-04-28T01:56:01.071Z,0.00
2019-04-28T01:57:01.516Z,0.00
2019-04-28T01:58:01.069Z,0.00
2019-04-28T01:59:01.032Z,0.00
2019-04-28T02:00:01.115Z,0.00
2019-04-28T02:01:01.025Z,0.00
2019-04-28T02:02:01.023Z,0.00
2019-04-28T02:03:02.074Z,0.00
2019-04-28T02:04:01.067Z,0.00
2019-04-28T02:05:00.972Z,0.00
2019-04-28T02:06:00.961Z,0.00
2019-04-28T02:07:00.942Z,0.00
2019-04-28T02:08:00.954Z,0.00
2019-04-28T02:09:01.018Z,0.00
2019-04-28T02:10:00.951Z,0.00
2019-04-28T02:11:00.914Z,0.00
2019-04-28T02:12:00.929Z,0.00
2019-04-28T02:13:00.902Z,0.00
2019-04-28T02:14:00.879Z,0.00
2019-04-28T02:15:01.270Z,0.00
2019-04-28T02:16:00.852Z,0.00
2019-04-28T02:17:00.842Z,0.00
2019-04-28T02:18:00.822Z,0.00
2019-04-28T02:19:00.823Z,0.00
2019-04-28T02:20:00.909Z,0.00
2019-04-28T02:21:00.802Z,0.00
2019-04-28T02:22:00.794Z,0.00
2019-04-28T02:23:00.784Z,0.00
2019-04-28T02:24:00.775Z,0.00
2019-04-28T02:25:00.834Z,0.00
2019-04-28T02:26:00.763Z,0.00
2019-04-28T02:27:01.095Z,0.00
2019-04-28T02:28:00.722Z,0.00
2019-04-28T02:29:00.724Z,0.00
2019-04-28T02:30:00.732Z,0.00
2019-04-28T02:31:02.297Z,0.00
2019-04-28T02:32:02.075Z,0.00
2019-04-28T02:33:01.624Z,0.00
2019-04-28T02:34:00.855Z,0.00
2019-04-28T02:35:01.618Z,0.00
2019-04-28T02:36:01.395Z,0.00
2019-04-28T02:37:01.616Z,0.00
2019-04-28T02:38:00.666Z,0.00
2019-04-28T02:39:00.929Z,0.00
2019-04-28T02:40:03.552Z,0.00
2019-04-28T02:41:00.595Z,0.00
2019-04-28T02:42:01.363Z,0.00
2019-04-28T02:43:01.301Z,0.00
2019-04-28T02:44:01.074Z,0.00
2019-04-28T02:45:00.791Z,0.00
2019-04-28T02:46:00.759Z,0.00
2019-04-28T02:47:00.987Z,0.00
2019-04-28T02:48:01.090Z,0.00
2019-04-28T02:49:00.898Z,0.00
2019-04-28T02:50:00.827Z,0.00
2019-04-28T02:51:01.226Z,0.00
2019-04-28T02:52:03.025Z,0.00
2019-04-28T02:53:01.640Z,0.00
2019-04-28T02:54:00.635Z,0.00
2019-04-28T02:55:03.244Z,0.00
2019-04-28T02:56:00.962Z,0.00
2019-04-28T02:57:01.280Z,0.00
2019-04-28T02:58:01.508Z,0.00
2019-04-28T02:59:01.099Z,0.00
2019-04-28T03:00:00.615Z,0.00
2019-04-28T03:01:09.766Z,0.00
2019-04-28T03:02:01.352Z,0.00
2019-04-28T03:03:01.438Z,0.00
2019-04-28T03:04:00.469Z,0.00
2019-04-28T03:05:00.587Z,0.00
2019-04-28T03:06:01.507Z,0.00
2019-04-28T03:07:01.401Z,0.00
2019-04-28T03:08:01.184Z,0.00
2019-04-28T03:09:00.398Z,0.00
2019-04-28T03:10:03.264Z,0.00
2019-04-28T03:11:01.131Z,0.00
2019-04-28T03:12:01.528Z,0.00
2019-04-28T03:13:01.146Z,0.00
2019-04-28T03:14:00.975Z,0.00
2019-04-28T03:15:00.528Z,0.00
2019-04-28T03:16:01.572Z,0.00
2019-04-28T03:17:00.888Z,0.00
2019-04-28T03:18:01.887Z,0.00
2019-04-28T03:19:01.210Z,0.00
2019-04-28T03:20:01.061Z,0.00
2019-04-28T03:21:01.708Z,0.00
2019-04-28T03:22:01.280Z,0.00
2019-04-28T03:23:00.921Z,0.00
2019-04-28T03:24:01.237Z,0.00
2019-04-28T03:25:00.878Z,0.00
2019-04-28T03:26:01.423Z,0.00
2019-04-28T03:27:00.636Z,0.00
2019-04-28T03:28:00.684Z,0.00
2019-04-28T03:29:01.055Z,0.00
2019-04-28T03:30:00.939Z,0.00
2019-04-28T03:31:06.490Z,0.00
2019-04-28T03:32:22.789Z,0.00
2019-04-28T03:33:11.166Z,0.00
2019-04-28T03:34:04.095Z,0.00
2019-04-28T03:35:03.033Z,0.00
2019-04-28T03:36:03.657Z,0.00
2019-04-28T03:37:00.983Z,0.00
2019-04-28T03:38:01.224Z,0.00
2019-04-28T03:39:00.728Z,0.00
2019-04-28T03:40:00.603Z,0.00
2019-04-28T03:41:01.034Z,0.00
2019-04-28T03:42:00.175Z,0.00
2019-04-28T03:43:02.841Z,0.00
2019-04-28T03:44:00.559Z,0.00
2019-04-28T03:45:01.013Z,0.00
2019-04-28T03:46:02.794Z,0.00
2019-04-28T03:47:00.723Z,0.00
2019-04-28T03:48:00.389Z,0.00
2019-04-28T03:49:00.721Z,0.00
2019-04-28T03:50:00.178Z,0.00
2019-04-28T03:51:00.717Z,0.00
2019-04-28T03:52:00.428Z,0.00
2019-04-28T03:53:01.077Z,0.00
2019-04-28T03:54:00.651Z,0.00
2019-04-28T03:55:00.579Z,0.00
2019-04-28T03:56:01.626Z,0.00
2019-04-28T03:57:01.330Z,0.00
2019-04-28T03:58:00.902Z,0.00
2019-04-28T03:59:00.444Z,0.00
2019-04-28T04:00:01.550Z,0.00
2019-04-28T04:01:02.700Z,0.00
2019-04-28T04:02:03.259Z,0.00
2019-04-28T04:03:00.798Z,0.00
2019-04-28T04:04:03.071Z,0.00
2019-04-28T04:05:03.275Z,5.62
2019-04-28T04:06:00.807Z,5.62
2019-04-28T04:07:01.467Z,5.62
2019-04-28T04:08:06.762Z,5.62
2019-04-28T04:09:00.290Z,5.62
2019-04-28T04:10:01.013Z,5.62
2019-04-28T04:11:00.306Z,5.62
2019-04-28T04:12:00.317Z,5.62
2019-04-28T04:13:00.913Z,5.62
2019-04-28T04:14:01.680Z,5.62
2019-04-28T04:15:00.829Z,11.25
2019-04-28T04:16:01.631Z,11.25
2019-04-28T04:17:00.201Z,11.25
2019-04-28T04:18:01.321Z,11.25
2019-04-28T04:19:00.742Z,11.25
2019-04-28T04:20:01.814Z,11.25
2019-04-28T04:21:00.749Z,16.88
2019-04-28T04:22:00.345Z,16.88
2019-04-28T04:23:01.373Z,16.88
2019-04-28T04:24:00.970Z,16.88
2019-04-28T04:25:01.265Z,16.88
2019-04-28T04:26:01.770Z,22.50
2019-04-28T04:27:00.890Z,22.50
2019-04-28T04:28:00.436Z,22.50
2019-04-28T04:29:00.961Z,22.50
2019-04-28T04:30:01.557Z,28.12
2019-04-28T04:31:02.506Z,28.12
2019-04-28T04:32:13.519Z,28.12
2019-04-28T04:33:01.262Z,33.75
2019-04-28T04:34:02.607Z,33.75
2019-04-28T04:35:00.670Z,33.75
2019-04-28T04:36:01.551Z,39.38
2019-04-28T04:37:00.677Z,39.38
2019-04-28T04:38:00.535Z,39.38
2019-04-28T04:39:01.860Z,45.00
2019-04-28T04:40:01.395Z,45.00
2019-04-28T04:41:01.453Z,45.00
2019-04-28T04:42:00.619Z,50.62
2019-04-28T04:43:01.525Z,50.62
2019-04-28T04:44:01.155Z,50.62
2019-04-28T04:45:00.483Z,56.25
2019-04-28T04:46:01.430Z,56.25
2019-04-28T04:47:00.959Z,61.88
2019-04-28T04:48:00.538Z,61.88
2019-04-28T04:49:00.703Z,67.50
2019-04-28T04:50:00.248Z,67.50
2019-04-28T04:51:00.765Z,67.50
2019-04-28T04:52:00.424Z,73.12
2019-04-28T04:52:59.157Z,73.12
2019-04-28T04:54:00.996Z,78.75
2019-04-28T04:55:01.247Z,78.75
2019-04-28T04:56:00.341Z,84.38
2019-04-28T04:57:00.035Z,84.38
2019-04-28T04:58:00.730Z,84.38
2019-04-28T04:59:02.204Z,84.38
2019-04-28T05:00:00.059Z,90.00
2019-04-28T05:01:00.672Z,95.62
2019-04-28T05:01:59.991Z,101.25
2019-04-28T05:03:00.858Z,106.88
2019-04-28T05:03:59.651Z,112.50
2019-04-28T05:05:00.470Z,118.12
2019-04-28T05:06:00.115Z,123.75
2019-04-28T05:06:59.691Z,129.38
2019-04-28T05:08:00.330Z,140.62
2019-04-28T05:08:59.953Z,146.25
2019-04-28T05:09:59.528Z,151.88
2019-04-28T05:11:00.038Z,157.50
2019-04-28T05:11:59.776Z,157.50
2019-04-28T05:13:00.243Z,157.50
2019-04-28T05:13:59.681Z,163.12
2019-04-28T05:15:00.508Z,168.75
2019-04-28T05:15:59.819Z,174.38
2019-04-28T05:17:00.690Z,180.00
2019-04-28T05:18:00.249Z,185.62
2019-04-28T05:19:00.110Z,196.88
2019-04-28T05:19:59.715Z,202.50
2019-04-28T05:20:59.461Z,202.50
2019-04-28T05:22:00.007Z,208.12
2019-04-28T05:23:00.615Z,219.38
2019-04-28T05:23:59.642Z,219.38
2019-04-28T05:25:00.076Z,225.00
2019-04-28T05:26:01.558Z,230.62
2019-04-28T05:26:59.769Z,236.25
2019-04-28T05:28:02.688Z,241.88
2019-04-28T05:28:59.574Z,247.50
2019-04-28T05:30:02.454Z,247.50
2019-04-28T05:31:00.093Z,253.12
2019-04-28T05:32:01.866Z,258.75
2019-04-28T05:33:00.267Z,258.75
2019-04-28T05:34:00.000Z,264.38
2019-04-28T05:35:00.124Z,264.38
2019-04-28T05:36:02.655Z,270.00
2019-04-28T05:37:00.515Z,270.00
2019-04-28T05:37:59.771Z,275.62
2019-04-28T05:39:00.152Z,281.25
2019-04-28T05:40:00.660Z,281.25
2019-04-28T05:41:00.295Z,292.50
2019-04-28T05:42:00.649Z,292.50
2019-04-28T05:43:00.487Z,298.12
2019-04-28T05:43:59.635Z,298.12
2019-04-28T05:44:59.910Z,303.75
2019-04-28T05:46:00.178Z,309.38
2019-04-28T05:46:59.538Z,315.00
2019-04-28T05:47:59.450Z,320.62
2019-04-28T05:48:59.963Z,326.25
2019-04-28T05:49:59.895Z,326.25
2019-04-28T05:50:59.925Z,326.25
2019-04-28T05:51:58.495Z,331.88
2019-04-28T05:53:00.465Z,331.88
2019-04-28T05:53:59.523Z,337.50
2019-04-28T05:54:59.829Z,337.50
2019-04-28T05:56:00.066Z,337.50
2019-04-28T05:56:59.727Z,337.50
2019-04-28T05:57:59.954Z,337.50
2019-04-28T05:59:00.507Z,343.12
2019-04-28T06:00:01.035Z,343.12
2019-04-28T06:01:00.130Z,348.75
2019-04-28T06:02:00.570Z,354.38
2019-04-28T06:02:58.393Z,354.38
2019-04-28T06:03:58.375Z,354.38
2019-04-28T06:04:59.978Z,354.38
2019-04-28T06:05:59.974Z,365.62
2019-04-28T06:06:59.754Z,371.25
2019-04-28T06:07:59.622Z,382.50
2019-04-28T06:08:59.821Z,393.75
2019-04-28T06:10:00.050Z,399.38
2019-04-28T06:10:59.909Z,399.38
2019-04-28T06:12:00.032Z,399.38
2019-04-28T06:12:59.764Z,399.38
2019-04-28T06:13:59.893Z,399.38
2019-04-28T06:15:00.032Z,410.62
2019-04-28T06:15:59.864Z,427.50
2019-04-28T06:17:00.350Z,427.50
2019-04-28T06:18:00.025Z,433.12
2019-04-28T06:18:59.994Z,438.75
2019-04-28T06:20:00.055Z,444.38
2019-04-28T06:20:58.184Z,444.38
2019-04-28T06:21:58.172Z,455.62
2019-04-28T06:22:58.232Z,461.25
2019-04-28T06:23:58.156Z,466.88
2019-04-28T06:24:58.193Z,466.88
2019-04-28T06:25:58.142Z,472.50
2019-04-28T06:26:58.126Z,483.75
2019-04-28T06:27:58.125Z,489.38
2019-04-28T06:28:58.135Z,495.00
2019-04-28T06:29:58.083Z,500.62
2019-04-28T06:30:58.075Z,506.25
2019-04-28T06:31:58.088Z,511.88
2019-04-28T06:33:07.742Z,523.12
2019-04-28T06:33:59.106Z,540.00
2019-04-28T06:34:58.025Z,556.88
2019-04-28T06:35:58.018Z,568.12
2019-04-28T06:36:58.005Z,568.12
2019-04-28T06:37:57.993Z,573.75
2019-04-28T06:38:58.063Z,579.38
2019-04-28T06:39:57.975Z,590.62
2019-04-28T06:40:57.965Z,590.62
2019-04-28T06:41:57.955Z,596.25
2019-04-28T06:42:57.936Z,590.62
2019-04-28T06:43:57.976Z,585.00
2019-04-28T06:44:57.911Z,568.12
2019-04-28T06:45:57.893Z,551.25
2019-04-28T06:46:57.906Z,540.00
2019-04-28T06:47:57.875Z,540.00
2019-04-28T06:48:57.875Z,540.00
2019-04-28T06:49:57.944Z,545.62
2019-04-28T06:50:57.861Z,540.00
2019-04-28T06:51:57.847Z,545.62
2019-04-28T06:52:57.823Z,551.25
2019-04-28T06:53:57.827Z,556.88
2019-04-28T06:54:57.874Z,568.12
2019-04-28T06:55:57.807Z,585.00
2019-04-28T06:56:57.774Z,607.50
2019-04-28T06:57:57.764Z,618.75
2019-04-28T06:58:59.130Z,624.38
2019-04-28T06:59:57.827Z,630.00
2019-04-28T07:00:57.797Z,635.62
2019-04-28T07:01:57.728Z,652.50
2019-04-28T07:02:57.715Z,663.75
2019-04-28T07:03:57.703Z,675.00
2019-04-28T07:05:02.019Z,691.88
2019-04-28T07:05:57.688Z,697.50
2019-04-28T07:06:57.687Z,720.00
2019-04-28T07:07:57.665Z,742.50
2019-04-28T07:08:57.825Z,753.75
2019-04-28T07:09:57.635Z,765.00
2019-04-28T07:10:57.718Z,765.00
2019-04-28T07:11:57.623Z,776.25
2019-04-28T07:12:57.628Z,770.62
2019-04-28T07:13:57.596Z,753.75
2019-04-28T07:14:57.595Z,765.00
2019-04-28T07:15:57.659Z,776.25
2019-04-28T07:16:57.570Z,781.88
2019-04-28T07:17:57.568Z,793.12
2019-04-28T07:18:57.537Z,826.88
2019-04-28T07:19:57.529Z,843.75
2019-04-28T07:20:57.597Z,843.75
2019-04-28T07:21:57.506Z,821.25
2019-04-28T07:22:57.590Z,770.62
2019-04-28T07:23:57.509Z,720.00
2019-04-28T07:24:57.478Z,708.75
2019-04-28T07:25:57.457Z,759.38
2019-04-28T07:26:57.459Z,770.62
2019-04-28T07:27:57.457Z,781.88
2019-04-28T07:28:57.440Z,770.62
2019-04-28T07:29:57.415Z,787.50
2019-04-28T07:30:57.407Z,697.50
2019-04-28T07:31:57.420Z,669.38
2019-04-28T07:32:57.524Z,658.12
2019-04-28T07:33:57.372Z,646.88
2019-04-28T07:34:57.365Z,630.00
2019-04-28T07:35:57.359Z,618.75
2019-04-28T07:36:57.342Z,613.12
2019-04-28T07:37:57.408Z,596.25
2019-04-28T07:38:57.308Z,590.62
2019-04-28T07:39:57.311Z,579.38
2019-04-28T07:40:57.309Z,590.62
2019-04-28T07:41:57.300Z,630.00
2019-04-28T07:42:57.350Z,652.50
2019-04-28T07:43:57.354Z,680.62
2019-04-28T07:44:57.258Z,658.12
2019-04-28T07:45:57.251Z,658.12
2019-04-28T07:46:57.231Z,703.12
2019-04-28T07:47:57.241Z,748.12
2019-04-28T07:48:57.198Z,781.88
2019-04-28T07:49:57.201Z,787.50
2019-04-28T07:50:57.178Z,804.38
2019-04-28T07:51:57.173Z,832.50
2019-04-28T07:52:57.252Z,849.38
2019-04-28T07:53:57.149Z,866.25
2019-04-28T07:54:57.230Z,894.38
2019-04-28T07:55:57.142Z,928.12
2019-04-28T07:56:57.121Z,939.38
2019-04-28T07:57:57.132Z,933.75
2019-04-28T07:58:57.102Z,939.38
2019-04-28T07:59:57.111Z,888.75
2019-04-28T08:00:57.081Z,894.38
2019-04-28T08:01:57.063Z,967.50
2019-04-28T08:02:57.140Z,990.00
2019-04-28T08:03:57.630Z,883.12
2019-04-28T08:04:57.113Z,871.88
2019-04-28T08:05:57.021Z,945.00
2019-04-28T08:06:57.010Z,1040.62
2019-04-28T08:07:57.011Z,1035.00
2019-04-28T08:08:56.993Z,900.00
2019-04-28T08:09:56.983Z,871.88
2019-04-28T08:10:57.063Z,877.50
2019-04-28T08:11:56.964Z,922.50
2019-04-28T08:12:56.947Z,933.75
2019-04-28T08:13:57.011Z,945.00
2019-04-28T08:14:56.912Z,950.62
2019-04-28T08:15:56.923Z,1063.12
2019-04-28T08:16:56.904Z,1423.12
2019-04-28T08:17:56.895Z,1456.88
2019-04-28T08:18:56.965Z,1400.62
2019-04-28T08:19:56.871Z,1563.75
2019-04-28T08:20:56.851Z,1209.38
2019-04-28T08:21:56.843Z,1288.12
2019-04-28T08:22:56.845Z,1738.12
2019-04-28T08:23:56.914Z,1530.00
2019-04-28T08:24:56.825Z,1231.88
2019-04-28T08:25:56.807Z,1243.12
2019-04-28T08:26:56.793Z,1586.25
2019-04-28T08:27:56.841Z,1743.75
2019-04-28T08:28:56.778Z,1040.62
2019-04-28T08:29:58.658Z,1035.00
2019-04-28T08:30:56.752Z,978.75
2019-04-28T08:31:56.816Z,1012.50
2019-04-28T08:32:56.725Z,1051.88
2019-04-28T08:34:02.719Z,1108.12
2019-04-28T08:34:57.804Z,1091.25
2019-04-28T08:35:56.693Z,1057.50
2019-04-28T08:36:56.686Z,1001.25
2019-04-28T08:37:56.684Z,939.38
2019-04-28T08:38:56.662Z,883.12
2019-04-28T08:39:56.646Z,877.50
2019-04-28T08:40:56.656Z,945.00
2019-04-28T08:41:56.635Z,1012.50
2019-04-28T08:42:56.694Z,1063.12
2019-04-28T08:43:56.606Z,984.38
2019-04-28T08:44:56.638Z,916.88
2019-04-28T08:45:56.666Z,883.12
2019-04-28T08:46:56.577Z,855.00
2019-04-28T08:47:58.037Z,871.88
2019-04-28T08:48:56.560Z,900.00
2019-04-28T08:49:56.536Z,1080.00
2019-04-28T08:50:56.614Z,916.88
2019-04-28T08:51:56.548Z,916.88
2019-04-28T08:52:56.504Z,939.38
2019-04-28T08:53:56.486Z,950.62
2019-04-28T08:54:56.478Z,950.62
2019-04-28T08:55:56.590Z,905.62
2019-04-28T08:56:56.468Z,849.38
2019-04-28T08:57:56.459Z,832.50
2019-04-28T08:58:56.450Z,905.62
2019-04-28T08:59:56.429Z,1158.75
2019-04-28T09:00:56.418Z,1113.75
2019-04-28T09:01:56.490Z,1085.62
2019-04-28T09:02:56.408Z,911.25
2019-04-28T09:03:56.391Z,905.62
2019-04-28T09:04:56.389Z,911.25
2019-04-28T09:05:56.358Z,1046.25
2019-04-28T09:06:56.360Z,2193.75
2019-04-28T09:07:56.367Z,1406.25
2019-04-28T09:08:56.330Z,1057.50
2019-04-28T09:09:56.318Z,1029.38
2019-04-28T09:10:56.311Z,956.25
2019-04-28T09:11:56.289Z,945.00
2019-04-28T09:12:56.372Z,945.00
2019-04-28T09:13:56.278Z,894.38
2019-04-28T09:14:56.260Z,883.12
2019-04-28T09:15:56.251Z,883.12
2019-04-28T09:16:56.239Z,888.75
2019-04-28T09:17:56.244Z,900.00
2019-04-28T09:18:56.234Z,928.12
2019-04-28T09:19:56.312Z,973.12
2019-04-28T09:20:56.232Z,1001.25
2019-04-28T09:21:56.194Z,1001.25
2019-04-28T09:22:56.173Z,1029.38
2019-04-28T09:23:56.253Z,1327.50
2019-04-28T09:24:56.172Z,1389.38
2019-04-28T09:25:56.143Z,1096.88
2019-04-28T09:26:56.142Z,1074.38
2019-04-28T09:27:56.132Z,1046.25
2019-04-28T09:28:56.110Z,928.12
2019-04-28T09:29:56.181Z,860.62
2019-04-28T09:30:56.161Z,804.38
2019-04-28T09:31:56.071Z,742.50
2019-04-28T09:32:56.156Z,742.50
2019-04-28T09:33:56.131Z,810.00
2019-04-28T09:34:56.067Z,866.25
2019-04-28T09:35:56.031Z,905.62
2019-04-28T09:36:56.011Z,933.75
2019-04-28T09:37:56.012Z,984.38
2019-04-28T09:38:56.072Z,990.00
2019-04-28T09:39:55.983Z,995.62
2019-04-28T09:40:55.973Z,1136.25
2019-04-28T09:41:55.977Z,956.25
2019-04-28T09:42:55.972Z,939.38
2019-04-28T09:43:56.031Z,911.25
2019-04-28T09:44:55.943Z,922.50
2019-04-28T09:45:55.914Z,933.75
2019-04-28T09:46:55.954Z,956.25
2019-04-28T09:47:55.953Z,978.75
2019-04-28T09:48:55.913Z,1012.50
2019-04-28T09:49:55.884Z,1046.25
2019-04-28T09:50:55.874Z,1085.62
2019-04-28T09:51:55.856Z,1102.50
2019-04-28T09:52:55.843Z,1130.62
2019-04-28T09:53:55.856Z,1164.38
2019-04-28T09:54:55.827Z,1220.62
2019-04-28T09:55:55.896Z,1479.38
2019-04-28T09:56:57.126Z,1597.50
2019-04-28T09:57:55.812Z,2154.38
2019-04-28T09:58:55.788Z,1721.25
2019-04-28T09:59:55.763Z,1563.75
2019-04-28T10:00:55.756Z,1507.50
2019-04-28T10:01:55.768Z,1012.50
2019-04-28T10:02:55.802Z,871.88
2019-04-28T10:03:55.796Z,793.12
2019-04-28T10:04:55.705Z,708.75
2019-04-28T10:05:55.696Z,686.25
2019-04-28T10:06:55.685Z,675.00
2019-04-28T10:07:55.748Z,663.75
2019-04-28T10:08:55.677Z,663.75
2019-04-28T10:09:55.688Z,658.12
2019-04-28T10:10:55.658Z,748.12
2019-04-28T10:11:55.650Z,860.62
2019-04-28T10:12:55.659Z,961.88
2019-04-28T10:13:57.033Z,1147.50
2019-04-28T10:14:55.607Z,2840.62
2019-04-28T10:15:55.597Z,3127.50
2019-04-28T10:16:55.590Z,1766.25
2019-04-28T10:17:55.567Z,1293.75
2019-04-28T10:18:55.648Z,1068.75
2019-04-28T10:19:55.550Z,973.12
2019-04-28T10:20:55.538Z,883.12
2019-04-28T10:21:55.527Z,776.25
2019-04-28T10:22:55.531Z,731.25
2019-04-28T10:23:55.588Z,731.25
2019-04-28T10:24:55.511Z,748.12
2019-04-28T10:25:55.491Z,759.38
2019-04-28T10:26:55.481Z,742.50
2019-04-28T10:27:55.481Z,714.38
2019-04-28T10:28:55.518Z,669.38
2019-04-28T10:29:55.451Z,624.38
2019-04-28T10:30:55.442Z,579.38
2019-04-28T10:31:55.432Z,534.38
2019-04-28T10:32:55.517Z,489.38
2019-04-28T10:33:55.404Z,466.88
2019-04-28T10:34:55.474Z,450.00
2019-04-28T10:35:55.386Z,438.75
2019-04-28T10:36:55.370Z,427.50
2019-04-28T10:37:55.352Z,421.88
2019-04-28T10:38:55.430Z,416.25
2019-04-28T10:39:55.412Z,416.25
2019-04-28T10:40:55.357Z,410.62
2019-04-28T10:41:55.300Z,410.62
2019-04-28T10:42:55.299Z,405.00
2019-04-28T10:43:55.280Z,405.00
2019-04-28T10:44:55.361Z,410.62
2019-04-28T10:45:55.271Z,416.25
2019-04-28T10:46:55.253Z,421.88
2019-04-28T10:47:55.244Z,427.50
2019-04-28T10:48:55.264Z,438.75
2019-04-28T10:49:55.334Z,450.00
2019-04-28T10:50:55.201Z,466.88
2019-04-28T10:51:59.502Z,489.38
2019-04-28T10:52:55.194Z,511.88
2019-04-28T10:53:55.181Z,540.00
2019-04-28T10:54:55.164Z,579.38
2019-04-28T10:55:55.243Z,641.25
2019-04-28T10:56:55.145Z,731.25
2019-04-28T10:57:55.195Z,843.75
2019-04-28T10:58:55.203Z,956.25
2019-04-28T10:59:55.125Z,1102.50
2019-04-28T11:00:55.115Z,1282.50
2019-04-28T11:01:55.105Z,1501.88
2019-04-28T11:02:55.163Z,1738.12
2019-04-28T11:03:55.076Z,2210.62
2019-04-28T11:05:07.420Z,2452.50
2019-04-28T11:05:56.049Z,2525.62
2019-04-28T11:06:55.036Z,2756.25
2019-04-28T11:07:55.038Z,3150.00
2019-04-28T11:08:55.025Z,3161.25
2019-04-28T11:09:55.017Z,3335.62
2019-04-28T11:10:55.076Z,2103.75
2019-04-28T11:11:54.995Z,2688.75
2019-04-28T11:12:55.007Z,2475.00
2019-04-28T11:13:54.968Z,1726.88
2019-04-28T11:14:54.945Z,1479.38
2019-04-28T11:15:54.995Z,1355.62
2019-04-28T11:16:54.928Z,1271.25
2019-04-28T11:17:54.916Z,1215.00
2019-04-28T11:18:54.917Z,1136.25
2019-04-28T11:19:54.898Z,1035.00
2019-04-28T11:20:54.892Z,1130.62
2019-04-28T11:21:54.886Z,1220.62
2019-04-28T11:22:54.865Z,1299.38
2019-04-28T11:23:54.850Z,1884.38
2019-04-28T11:24:54.834Z,1344.38
2019-04-28T11:25:54.928Z,1158.75
2019-04-28T11:26:54.811Z,984.38
2019-04-28T11:27:55.526Z,866.25
2019-04-28T11:28:54.797Z,770.62
2019-04-28T11:29:54.860Z,697.50
2019-04-28T11:30:54.770Z,646.88
2019-04-28T11:31:54.849Z,607.50
2019-04-28T11:32:54.748Z,568.12
2019-04-28T11:33:54.733Z,528.75
2019-04-28T11:34:54.741Z,489.38
2019-04-28T11:35:54.732Z,455.62
2019-04-28T11:36:54.781Z,444.38
2019-04-28T11:37:54.769Z,433.12
2019-04-28T11:38:54.691Z,438.75
2019-04-28T11:39:54.682Z,466.88
2019-04-28T11:40:54.662Z,489.38
2019-04-28T11:41:54.730Z,506.25
2019-04-28T11:42:54.629Z,511.88
2019-04-28T11:43:54.632Z,511.88
2019-04-28T11:44:54.610Z,483.75
2019-04-28T11:45:54.613Z,455.62
2019-04-28T11:46:54.601Z,433.12
2019-04-28T11:47:54.600Z,421.88
2019-04-28T11:48:54.573Z,405.00
2019-04-28T11:49:54.562Z,376.88
2019-04-28T11:50:54.562Z,348.75
2019-04-28T11:51:54.552Z,326.25
2019-04-28T11:52:54.544Z,303.75
2019-04-28T11:53:54.604Z,286.88
2019-04-28T11:54:54.511Z,270.00
2019-04-28T11:55:54.495Z,258.75
2019-04-28T11:56:54.482Z,253.12
2019-04-28T11:57:54.482Z,253.12
2019-04-28T11:58:54.463Z,270.00
2019-04-28T11:59:54.535Z,286.88
2019-04-28T12:00:54.442Z,298.12
2019-04-28T12:01:54.431Z,309.38
2019-04-28T12:02:54.425Z,315.00
2019-04-28T12:03:54.434Z,309.38
2019-04-28T12:04:54.409Z,298.12
2019-04-28T12:05:54.383Z,292.50
2019-04-28T12:06:54.378Z,286.88
2019-04-28T12:07:54.390Z,281.25
2019-04-28T12:08:54.342Z,286.88
2019-04-28T12:10:04.301Z,281.25
2019-04-28T12:10:55.338Z,292.50
2019-04-28T12:11:54.329Z,309.38
2019-04-28T12:12:54.315Z,320.62
2019-04-28T12:13:54.374Z,331.88
2019-04-28T12:14:54.296Z,343.12
2019-04-28T12:15:54.271Z,343.12
2019-04-28T12:16:54.253Z,348.75
2019-04-28T12:17:54.264Z,354.38
2019-04-28T12:18:54.243Z,360.00
2019-04-28T12:19:54.312Z,371.25
2019-04-28T12:20:54.229Z,376.88
2019-04-28T12:21:54.215Z,388.12
2019-04-28T12:22:54.227Z,393.75
2019-04-28T12:23:54.274Z,405.00
2019-04-28T12:24:54.187Z,416.25
2019-04-28T12:25:54.167Z,427.50
2019-04-28T12:26:54.161Z,427.50
2019-04-28T12:27:54.142Z,421.88
2019-04-28T12:28:54.206Z,416.25
2019-04-28T12:29:54.123Z,405.00
2019-04-28T12:30:54.114Z,410.62
2019-04-28T12:31:54.106Z,416.25
2019-04-28T12:32:54.096Z,438.75
2019-04-28T12:33:54.086Z,472.50
2019-04-28T12:34:54.174Z,517.50
2019-04-28T12:35:54.057Z,573.75
2019-04-28T12:36:54.051Z,624.38
2019-04-28T12:37:54.044Z,669.38
2019-04-28T12:38:54.014Z,703.12
2019-04-28T12:39:54.015Z,720.00
2019-04-28T12:40:54.082Z,720.00
2019-04-28T12:41:53.995Z,708.75
2019-04-28T12:42:53.984Z,691.88